Portada
METAR-TAF:

METAR-TAF

Aeropuertos :

RAF

Boulmer, Inglaterra

latitud: 55-25-19N, longitud: 1-36-12W, altitud: 24 m

Observación

El informe se hizo hace 59 minutos, a las 11:50 UTC
Viento 13 kt del sureste
Temperatura 19°C
Humedad 73%
Presión 1011 hPa
Visibilidad 10 km o más

METAR: EGQM 041150Z AUTO 14013KT 9999 SCT050/// 19/14 Q1011

Hora: 13:49 (12:49 UTC)


TAF: falta

Observaciones y pronósticos meteorológicos de más de 4000 aeropuertos (mensajes METAR y TAF).

Los puntos amarillos y rojos representan las estaciones disponibles.

Ponga el ratón en el punto deseado para ver el nombre de la estación.

Haga clic para ver las observaciones y los pronósticos meteorológicos.

Para cambiar el mapa : haga clic en los botones verdes con una cruz de color negro para hacer un zoom, en el botón verde con un guión para alejar o en las flechas verdes para mapas adyacentes.


METAR-TAF: